createdAt,value
2023-06-11T00:00:02.442Z,14.19
2023-06-11T00:00:33.398Z,14.19
2023-06-11T00:01:05.396Z,14.19
2023-06-11T00:01:34.456Z,14.29
2023-06-11T00:01:53.429Z,14.29
2023-06-11T00:02:26.467Z,14.34
2023-06-11T00:02:57.715Z,14.34
2023-06-11T00:03:30.449Z,14.34
2023-06-11T00:04:01.525Z,14.34
2023-06-11T00:04:34.574Z,14.34
2023-06-11T00:05:05.433Z,14.07
2023-06-11T00:05:34.751Z,14.34
2023-06-11T00:05:53.380Z,14.34
2023-06-11T00:06:25.378Z,14.07
2023-06-11T00:06:58.289Z,14.07
2023-06-11T00:07:29.383Z,14.18
2023-06-11T00:08:02.375Z,14.18
2023-06-11T00:08:33.324Z,14.18
2023-06-11T00:09:06.319Z,14.18
2023-06-11T00:09:34.477Z,14.18
2023-06-11T00:09:53.328Z,14.18
2023-06-11T00:10:25.406Z,14.18
2023-06-11T00:10:57.460Z,14.44
2023-06-11T00:11:29.384Z,14.44
2023-06-11T00:12:02.562Z,14.18
2023-06-11T00:12:33.388Z,14.18
2023-06-11T00:13:05.441Z,14.18
2023-06-11T00:13:34.519Z,14.18
2023-06-11T00:13:53.357Z,14.18
2023-06-11T00:14:26.370Z,14.18
2023-06-11T00:14:57.818Z,14.18
2023-06-11T00:15:30.281Z,14.18
2023-06-11T00:16:01.465Z,14.18
2023-06-11T00:16:34.753Z,14.18
2023-06-11T00:17:05.426Z,14.18
2023-06-11T00:17:34.664Z,14.18
2023-06-11T00:17:53.480Z,14.18
2023-06-11T00:18:25.356Z,14.18
2023-06-11T00:18:59.121Z,14.18
2023-06-11T00:19:29.341Z,14.18
2023-06-11T00:20:02.821Z,14.18
2023-06-11T00:20:33.354Z,14.18
2023-06-11T00:21:06.407Z,14.18
2023-06-11T00:21:34.442Z,14.07
2023-06-11T00:21:53.396Z,14.07
2023-06-11T00:22:25.330Z,14.07
2023-06-11T00:22:57.362Z,14.34
2023-06-11T00:23:29.367Z,14.34
2023-06-11T00:24:01.446Z,14.29
2023-06-11T00:24:33.342Z,14.29
2023-06-11T00:25:05.533Z,14.29
2023-06-11T00:25:34.447Z,14.54
2023-06-11T00:25:53.321Z,14.44
2023-06-11T00:26:26.259Z,14.44
2023-06-11T00:26:57.800Z,14.44
2023-06-11T00:27:30.484Z,14.34
2023-06-11T00:28:01.381Z,14.34
2023-06-11T00:28:34.391Z,14.22
2023-06-11T00:29:05.355Z,14.22
2023-06-11T00:29:34.535Z,14.22
2023-06-11T00:30:09.335Z,14.12
2023-06-11T00:30:34.470Z,14.12
2023-06-11T00:30:58.346Z,14.12
2023-06-11T00:31:29.457Z,14.34
2023-06-11T00:32:02.384Z,14.34
2023-06-11T00:32:33.408Z,14.34
2023-06-11T00:33:06.228Z,14.23
2023-06-11T00:33:34.474Z,14.23
2023-06-11T00:33:53.412Z,14.13
2023-06-11T00:34:25.299Z,14.38
2023-06-11T00:34:57.363Z,14.38
2023-06-11T00:35:29.307Z,14.27
2023-06-11T00:36:01.503Z,14.27
2023-06-11T00:36:35.181Z,14.27
2023-06-11T00:37:05.380Z,14.42
2023-06-11T00:37:34.493Z,14.42
2023-06-11T00:37:53.396Z,14.37
2023-06-11T00:38:26.172Z,14.37
2023-06-11T00:38:57.333Z,14.26
2023-06-11T00:39:30.266Z,14.26
2023-06-11T00:40:02.364Z,14.16
2023-06-11T00:40:34.372Z,14.16
2023-06-11T00:41:05.650Z,14.16
2023-06-11T00:41:35.271Z,14.30
2023-06-11T00:41:53.313Z,14.30
2023-06-11T00:42:25.552Z,14.30
2023-06-11T00:42:43.281Z,14.30
2023-06-11T00:43:13.352Z,14.43
2023-06-11T00:43:34.484Z,14.43
2023-06-11T00:44:01.347Z,14.38
2023-06-11T00:44:33.361Z,14.38
2023-06-11T00:45:06.322Z,14.38
2023-06-11T00:45:34.605Z,14.38
2023-06-11T00:45:54.251Z,14.14
2023-06-11T00:46:25.381Z,14.14
2023-06-11T00:46:57.267Z,14.14
2023-06-11T00:47:29.361Z,13.94
2023-06-11T00:48:01.427Z,13.94
2023-06-11T00:48:33.324Z,14.05
2023-06-11T00:49:05.288Z,14.16
2023-06-11T00:49:34.464Z,14.16
2023-06-11T00:49:53.541Z,14.16
2023-06-11T00:50:26.213Z,14.16
2023-06-11T00:50:57.473Z,14.05
2023-06-11T00:51:30.387Z,14.05
2023-06-11T00:52:01.551Z,14.05
2023-06-11T00:52:34.363Z,14.30
2023-06-11T00:53:07.493Z,13.80
2023-06-11T00:53:36.336Z,14.05
2023-06-11T00:54:09.767Z,13.80
2023-06-11T00:54:35.193Z,13.91
2023-06-11T00:54:59.664Z,13.91
2023-06-11T00:55:29.264Z,13.91
2023-06-11T00:56:02.310Z,13.91
2023-06-11T00:56:33.270Z,14.01
2023-06-11T00:57:06.240Z,14.01
2023-06-11T00:57:34.536Z,14.01
2023-06-11T00:57:53.261Z,14.01
2023-06-11T00:58:25.364Z,14.01
2023-06-11T00:58:42.397Z,14.01
2023-06-11T00:59:14.329Z,14.01
2023-06-11T00:59:34.457Z,14.01
2023-06-11T01:00:02.649Z,14.01
2023-06-11T01:00:33.304Z,14.01
2023-06-11T01:01:05.360Z,14.01
2023-06-11T01:01:34.584Z,14.01
2023-06-11T01:02:09.257Z,14.01
2023-06-11T01:02:34.481Z,14.01
2023-06-11T01:02:57.287Z,14.01
2023-06-11T01:03:30.234Z,14.01
2023-06-11T01:04:01.367Z,14.01
2023-06-11T01:04:34.487Z,13.76
2023-06-11T01:05:05.413Z,13.76
2023-06-11T01:05:35.641Z,14.01
2023-06-11T01:05:53.276Z,14.01
2023-06-11T01:06:25.303Z,14.01
2023-06-11T01:06:58.213Z,14.01
2023-06-11T01:07:29.263Z,13.76
2023-06-11T01:08:02.240Z,13.76
2023-06-11T01:08:33.263Z,13.76
2023-06-11T01:09:06.500Z,13.76
2023-06-11T01:09:34.432Z,13.76
2023-06-11T01:09:53.320Z,13.87
2023-06-11T01:10:25.281Z,13.87
2023-06-11T01:10:57.801Z,13.76
2023-06-11T01:11:29.272Z,13.50
2023-06-11T01:12:02.305Z,13.87
2023-06-11T01:12:33.291Z,13.87
2023-06-11T01:13:05.285Z,13.87
2023-06-11T01:13:34.486Z,13.87
2023-06-11T01:13:53.321Z,13.61
2023-06-11T01:14:26.209Z,13.87
2023-06-11T01:14:57.837Z,13.61
2023-06-11T01:15:30.431Z,13.65
2023-06-11T01:16:01.261Z,13.65
2023-06-11T01:16:34.209Z,13.65
2023-06-11T01:17:05.321Z,13.65
2023-06-11T01:17:35.514Z,13.65
2023-06-11T01:17:53.345Z,13.76
2023-06-11T01:18:25.303Z,13.51
2023-06-11T01:19:00.468Z,13.51
2023-06-11T01:19:29.371Z,13.87
2023-06-11T01:20:03.776Z,13.87
2023-06-11T01:20:33.312Z,13.62
2023-06-11T01:21:06.134Z,13.87
2023-06-11T01:21:34.460Z,13.62
2023-06-11T01:21:53.269Z,13.62
2023-06-11T01:22:25.282Z,13.62
2023-06-11T01:22:42.966Z,13.76
2023-06-11T01:23:14.274Z,13.51
2023-06-11T01:23:34.521Z,13.76
2023-06-11T01:24:01.385Z,13.76
2023-06-11T01:24:33.250Z,13.76
2023-06-11T01:25:05.269Z,13.76
2023-06-11T01:25:34.506Z,13.76
2023-06-11T01:25:53.290Z,13.65
2023-06-11T01:26:26.155Z,13.65
2023-06-11T01:26:57.292Z,13.65
2023-06-11T01:27:30.337Z,13.65
2023-06-11T01:28:01.293Z,13.61
2023-06-11T01:28:34.256Z,13.61
2023-06-11T01:29:05.338Z,13.87
2023-06-11T01:29:35.429Z,13.87
2023-06-11T01:29:53.202Z,13.87
2023-06-11T01:30:25.334Z,13.76
2023-06-11T01:30:58.175Z,13.76
2023-06-11T01:31:29.417Z,13.76
2023-06-11T01:32:02.125Z,13.76
2023-06-11T01:32:33.334Z,13.76
2023-06-11T01:33:06.269Z,13.76
2023-06-11T01:33:34.415Z,13.76
2023-06-11T01:33:53.285Z,13.66
2023-06-11T01:34:25.309Z,13.66
2023-06-11T01:34:57.412Z,13.66
2023-06-11T01:35:29.224Z,13.66
2023-06-11T01:36:01.440Z,13.55
2023-06-11T01:36:33.358Z,13.55
2023-06-11T01:37:11.488Z,13.55
2023-06-11T01:37:22.121Z,13.55
2023-06-11T01:37:39.326Z,13.55
2023-06-11T01:38:09.581Z,13.80
2023-06-11T01:38:35.254Z,13.55
2023-06-11T01:38:57.297Z,13.55
2023-06-11T01:39:30.268Z,13.55
2023-06-11T01:40:02.259Z,13.55
2023-06-11T01:40:34.289Z,13.55
2023-06-11T01:41:05.433Z,13.55
2023-06-11T01:41:35.451Z,13.55
2023-06-11T01:41:53.276Z,13.55
2023-06-11T01:42:25.208Z,13.55
2023-06-11T01:42:43.264Z,13.55
2023-06-11T01:43:13.319Z,13.55
2023-06-11T01:43:35.243Z,13.55
2023-06-11T01:44:01.316Z,13.29
2023-06-11T01:44:33.261Z,13.29
2023-06-11T01:45:06.329Z,13.55
2023-06-11T01:45:34.449Z,13.66
2023-06-11T01:45:55.147Z,13.40
2023-06-11T01:46:25.252Z,13.40
2023-06-11T01:46:42.526Z,13.66
2023-06-11T01:47:14.323Z,13.66
2023-06-11T01:47:35.255Z,13.66
2023-06-11T01:48:01.277Z,13.55
2023-06-11T01:48:33.329Z,13.55
2023-06-11T01:49:05.440Z,13.55
2023-06-11T01:49:34.422Z,13.55
2023-06-11T01:49:53.173Z,13.55
2023-06-11T01:50:26.121Z,13.45
2023-06-11T01:50:57.215Z,13.69
2023-06-11T01:51:30.163Z,13.45
2023-06-11T01:52:01.288Z,13.45
2023-06-11T01:52:34.296Z,13.45
2023-06-11T01:53:05.201Z,13.45
2023-06-11T01:53:35.346Z,13.45
2023-06-11T01:53:53.236Z,13.45
2023-06-11T01:54:25.215Z,13.45
2023-06-11T01:54:43.465Z,13.69
2023-06-11T01:55:15.179Z,13.45
2023-06-11T01:55:34.443Z,13.45
2023-06-11T01:56:01.306Z,13.69
2023-06-11T01:56:33.180Z,13.69
2023-06-11T01:57:06.234Z,13.45
2023-06-11T01:57:34.524Z,13.45
2023-06-11T01:57:53.251Z,13.45
2023-06-11T01:58:25.251Z,13.45
2023-06-11T01:58:57.697Z,13.69
2023-06-11T01:59:29.373Z,13.45
2023-06-11T02:00:02.423Z,13.45
2023-06-11T02:00:33.196Z,13.40
2023-06-11T02:01:05.273Z,13.40
2023-06-11T02:01:35.071Z,13.40
2023-06-11T02:01:53.286Z,13.29
2023-06-11T02:02:26.146Z,13.54
2023-06-11T02:02:57.495Z,13.54
2023-06-11T02:03:32.200Z,13.54
2023-06-11T02:04:01.477Z,13.54
2023-06-11T02:04:34.345Z,13.44
2023-06-11T02:05:05.182Z,13.44
2023-06-11T02:05:36.397Z,13.44
2023-06-11T02:05:53.343Z,13.44
2023-06-11T02:06:25.301Z,13.54
2023-06-11T02:06:43.354Z,13.54
2023-06-11T02:07:13.183Z,13.54
2023-06-11T02:07:35.044Z,13.44
2023-06-11T02:08:01.231Z,13.44
2023-06-11T02:08:33.200Z,13.44
2023-06-11T02:09:11.358Z,13.44
2023-06-11T02:09:22.279Z,13.69
2023-06-11T02:09:39.650Z,13.69
2023-06-11T02:10:09.207Z,13.44
2023-06-11T02:10:34.452Z,13.44
2023-06-11T02:10:57.426Z,13.44
2023-06-11T02:11:30.108Z,13.44
2023-06-11T02:12:02.297Z,13.54
2023-06-11T02:12:34.124Z,13.54
2023-06-11T02:13:05.266Z,13.54
2023-06-11T02:13:35.680Z,13.54
2023-06-11T02:13:53.282Z,13.54
2023-06-11T02:14:25.220Z,13.54
2023-06-11T02:14:43.294Z,13.54
2023-06-11T02:15:13.483Z,13.65
2023-06-11T02:15:35.471Z,13.65
2023-06-11T02:16:01.353Z,13.40
2023-06-11T02:16:33.284Z,13.40
2023-06-11T02:17:06.082Z,13.69
2023-06-11T02:17:34.535Z,13.69
2023-06-11T02:17:53.195Z,13.69
2023-06-11T02:18:25.231Z,13.69
2023-06-11T02:18:42.404Z,13.69
2023-06-11T02:19:14.095Z,13.69
2023-06-11T02:19:34.452Z,13.69
2023-06-11T02:20:02.383Z,13.40
2023-06-11T02:20:33.306Z,13.65
2023-06-11T02:21:05.208Z,13.65
2023-06-11T02:21:34.434Z,13.65
2023-06-11T02:21:53.235Z,13.65
2023-06-11T02:22:26.003Z,13.65
2023-06-11T02:22:42.545Z,13.65
2023-06-11T02:23:13.227Z,13.65
2023-06-11T02:23:34.441Z,13.65
2023-06-11T02:24:01.291Z,13.65
2023-06-11T02:24:34.105Z,13.65
2023-06-11T02:25:05.239Z,13.65
2023-06-11T02:25:35.348Z,13.65
2023-06-11T02:25:53.212Z,13.65
2023-06-11T02:26:31.383Z,13.65
2023-06-11T02:26:34.405Z,13.65
2023-06-11T02:26:57.780Z,13.65
2023-06-11T02:27:29.150Z,13.65
2023-06-11T02:28:02.078Z,13.65
2023-06-11T02:28:33.639Z,13.65
2023-06-11T02:29:06.167Z,13.65
2023-06-11T02:29:34.413Z,13.65
2023-06-11T02:29:53.173Z,13.65
2023-06-11T02:30:27.090Z,13.69
2023-06-11T02:30:57.377Z,13.69
2023-06-11T02:31:29.628Z,13.69
2023-06-11T02:32:01.274Z,13.69
2023-06-11T02:32:33.176Z,13.69
2023-06-11T02:33:05.323Z,13.65
2023-06-11T02:33:34.513Z,13.65
2023-06-11T02:33:53.239Z,13.90
2023-06-11T02:34:26.158Z,13.65
2023-06-11T02:35:04.348Z,13.65
2023-06-11T02:35:14.354Z,13.65
2023-06-11T02:35:36.839Z,13.79
2023-06-11T02:36:01.189Z,13.79
2023-06-11T02:36:34.199Z,13.79
2023-06-11T02:37:05.367Z,13.79
2023-06-11T02:37:35.429Z,13.79
2023-06-11T02:37:53.125Z,13.79
2023-06-11T02:38:25.217Z,13.69
2023-06-11T02:38:44.165Z,13.69
2023-06-11T02:39:13.167Z,13.69
2023-06-11T02:39:34.479Z,13.69
2023-06-11T02:40:02.377Z,13.82
2023-06-11T02:40:33.165Z,13.82
2023-06-11T02:41:06.093Z,13.72
2023-06-11T02:41:34.428Z,13.72
2023-06-11T02:41:53.348Z,13.72
2023-06-11T02:42:25.182Z,13.67
2023-06-11T02:42:42.360Z,13.91
2023-06-11T02:43:14.029Z,13.91
2023-06-11T02:43:34.674Z,13.91
2023-06-11T02:44:01.282Z,13.80
2023-06-11T02:44:33.150Z,13.70
2023-06-11T02:45:05.200Z,13.70
2023-06-11T02:45:34.431Z,13.70
2023-06-11T02:45:53.190Z,13.58
2023-06-11T02:46:26.104Z,13.82
2023-06-11T02:46:57.392Z,13.82
2023-06-11T02:47:30.084Z,13.71
2023-06-11T02:48:02.777Z,13.71
2023-06-11T02:48:34.243Z,13.67
2023-06-11T02:49:05.807Z,13.67
2023-06-11T02:49:35.357Z,13.67
2023-06-11T02:49:53.109Z,13.67
2023-06-11T02:50:25.194Z,13.67
2023-06-11T02:50:43.408Z,13.67
2023-06-11T02:51:13.121Z,13.43
2023-06-11T02:51:34.440Z,13.43
2023-06-11T02:52:01.250Z,13.67
2023-06-11T02:52:33.197Z,13.71
2023-06-11T02:53:06.045Z,13.71
2023-06-11T02:53:35.337Z,13.67
2023-06-11T02:53:53.122Z,13.90
2023-06-11T02:54:25.160Z,13.90
2023-06-11T02:54:42.776Z,13.90
2023-06-11T02:55:15.077Z,13.80
2023-06-11T02:55:34.457Z,13.80
2023-06-11T02:56:01.437Z,13.80
2023-06-11T02:56:33.303Z,13.69
2023-06-11T02:57:05.180Z,13.69
2023-06-11T02:57:34.473Z,13.69
2023-06-11T02:57:53.190Z,13.91
2023-06-11T02:58:26.024Z,13.80
2023-06-11T02:58:57.676Z,13.80
2023-06-11T02:59:30.169Z,13.80
2023-06-11T03:00:02.331Z,13.69
2023-06-11T03:00:34.153Z,13.69
2023-06-11T03:01:05.255Z,13.87
2023-06-11T03:01:36.044Z,13.87
2023-06-11T03:01:53.252Z,13.87
2023-06-11T03:02:25.218Z,13.76
2023-06-11T03:02:43.396Z,13.76
2023-06-11T03:03:13.221Z,13.76
2023-06-11T03:03:35.661Z,13.76
2023-06-11T03:04:01.266Z,13.76
2023-06-11T03:04:33.095Z,13.54
2023-06-11T03:05:06.196Z,13.54
2023-06-11T03:05:34.432Z,13.65
2023-06-11T03:05:53.104Z,13.69
2023-06-11T03:06:25.194Z,13.58
2023-06-11T03:06:42.418Z,13.58
2023-06-11T03:07:14.175Z,13.91
2023-06-11T03:07:34.658Z,13.91
2023-06-11T03:08:01.201Z,13.91
2023-06-11T03:08:33.145Z,13.91
2023-06-11T03:09:05.127Z,13.91
2023-06-11T03:09:34.445Z,13.91
2023-06-11T03:09:53.090Z,13.91
2023-06-11T03:10:26.047Z,13.69
2023-06-11T03:10:57.289Z,13.69
2023-06-11T03:11:30.395Z,13.69
2023-06-11T03:12:02.339Z,13.69
2023-06-11T03:12:34.302Z,13.91
2023-06-11T03:13:05.225Z,13.91
2023-06-11T03:13:35.929Z,13.91
2023-06-11T03:13:53.355Z,13.91
2023-06-11T03:14:25.333Z,13.91
2023-06-11T03:14:58.749Z,13.91
2023-06-11T03:15:29.230Z,13.91
2023-06-11T03:16:02.750Z,13.91
2023-06-11T03:16:33.390Z,13.91
2023-06-11T03:17:06.091Z,13.91
2023-06-11T03:17:34.541Z,13.91
2023-06-11T03:17:53.131Z,13.91
2023-06-11T03:18:25.191Z,13.91
2023-06-11T03:18:57.542Z,13.80
2023-06-11T03:19:29.121Z,13.80
2023-06-11T03:20:02.325Z,13.80
2023-06-11T03:20:33.175Z,13.80
2023-06-11T03:21:05.205Z,14.02
2023-06-11T03:21:34.471Z,14.02
2023-06-11T03:21:53.404Z,14.02
2023-06-11T03:22:26.073Z,13.91
2023-06-11T03:22:57.776Z,13.91
2023-06-11T03:23:30.168Z,13.91
2023-06-11T03:24:01.578Z,14.13
2023-06-11T03:24:34.393Z,14.09
2023-06-11T03:25:05.399Z,13.98
2023-06-11T03:25:36.604Z,13.98
2023-06-11T03:25:53.162Z,13.98
2023-06-11T03:26:25.261Z,14.10
2023-06-11T03:26:43.791Z,14.10
2023-06-11T03:27:13.367Z,14.10
2023-06-11T03:27:35.068Z,13.98
2023-06-11T03:28:01.354Z,13.98
2023-06-11T03:28:35.174Z,13.87
2023-06-11T03:29:05.312Z,13.87
2023-06-11T03:29:34.693Z,13.87
2023-06-11T03:29:53.355Z,13.87
2023-06-11T03:30:25.308Z,14.05
2023-06-11T03:30:58.143Z,14.05
2023-06-11T03:31:31.132Z,13.94
2023-06-11T03:32:02.176Z,13.94
2023-06-11T03:32:33.594Z,13.84
2023-06-11T03:33:06.248Z,13.84
2023-06-11T03:33:35.743Z,14.04
2023-06-11T03:33:53.336Z,13.72
2023-06-11T03:34:25.141Z,13.72
2023-06-11T03:34:42.358Z,13.93
2023-06-11T03:35:14.536Z,13.93
2023-06-11T03:35:35.196Z,13.82
2023-06-11T03:36:01.201Z,13.82
2023-06-11T03:36:33.160Z,13.82
2023-06-11T03:37:05.318Z,14.03
2023-06-11T03:37:36.160Z,13.98
2023-06-11T03:38:09.190Z,13.98
2023-06-11T03:38:35.024Z,13.98
2023-06-11T03:38:57.623Z,13.87
2023-06-11T03:39:29.234Z,13.87
2023-06-11T03:40:02.456Z,14.09
2023-06-11T03:40:33.190Z,13.98
2023-06-11T03:41:06.228Z,13.77
2023-06-11T03:41:34.640Z,13.77
2023-06-11T03:41:53.148Z,13.77
2023-06-11T03:42:25.320Z,13.77
2023-06-11T03:43:00.609Z,13.77
2023-06-11T03:43:30.181Z,13.87
2023-06-11T03:44:01.249Z,13.87
2023-06-11T03:44:34.405Z,13.87
2023-06-11T03:45:05.489Z,13.87
2023-06-11T03:45:35.628Z,13.87
2023-06-11T03:45:53.230Z,13.87
2023-06-11T03:46:25.375Z,13.67
2023-06-11T03:46:58.372Z,13.87
2023-06-11T03:47:29.197Z,14.03
2023-06-11T03:48:02.287Z,14.03
2023-06-11T03:48:33.072Z,14.03
2023-06-11T03:49:07.425Z,14.03
2023-06-11T03:49:35.171Z,13.82
2023-06-11T03:49:53.208Z,13.82
2023-06-11T03:50:25.255Z,13.82
2023-06-11T03:50:57.716Z,13.93
2023-06-11T03:51:29.389Z,13.93
2023-06-11T03:52:01.359Z,14.04
2023-06-11T03:52:33.207Z,14.04
2023-06-11T03:53:05.143Z,14.04
2023-06-11T03:53:34.518Z,14.04
2023-06-11T03:53:53.212Z,14.04
2023-06-11T03:54:26.062Z,14.04
2023-06-11T03:54:57.720Z,14.04
2023-06-11T03:55:29.923Z,14.04
2023-06-11T03:56:01.243Z,14.25
2023-06-11T03:56:34.010Z,14.25
2023-06-11T03:57:05.719Z,14.13
2023-06-11T03:57:35.568Z,14.13
2023-06-11T03:57:53.085Z,14.13
2023-06-11T03:58:26.373Z,14.13
2023-06-11T03:58:58.434Z,14.13
2023-06-11T03:59:29.231Z,14.03
2023-06-11T04:00:02.874Z,14.03
2023-06-11T04:00:33.595Z,14.03
2023-06-11T04:01:06.200Z,14.24
2023-06-11T04:01:35.075Z,14.24
2023-06-11T04:01:53.382Z,14.03
2023-06-11T04:02:25.649Z,14.03
2023-06-11T04:02:42.748Z,14.03
2023-06-11T04:03:21.102Z,14.03
2023-06-11T04:03:30.336Z,14.20
2023-06-11T04:04:01.434Z,13.98
2023-06-11T04:04:34.193Z,13.98
2023-06-11T04:05:05.213Z,14.20
2023-06-11T04:05:37.901Z,14.20
2023-06-11T04:06:09.762Z,14.20
2023-06-11T04:06:34.696Z,14.20
2023-06-11T04:06:57.373Z,14.20
2023-06-11T04:07:29.390Z,14.20
2023-06-11T04:08:07.566Z,14.20
2023-06-11T04:08:18.294Z,14.20
2023-06-11T04:08:49.201Z,14.20
2023-06-11T04:09:22.640Z,14.20
2023-06-11T04:09:40.166Z,14.20
2023-06-11T04:10:09.332Z,14.20
2023-06-11T04:10:34.729Z,14.20
2023-06-11T04:10:57.493Z,14.20
2023-06-11T04:11:30.112Z,14.40
2023-06-11T04:12:02.518Z,14.40
2023-06-11T04:12:35.033Z,14.40
2023-06-11T04:13:05.397Z,14.40
2023-06-11T04:13:34.555Z,14.40
2023-06-11T04:13:53.100Z,14.09
2023-06-11T04:14:25.309Z,14.09
2023-06-11T04:14:42.456Z,14.09
2023-06-11T04:15:13.762Z,14.09
2023-06-11T04:15:34.684Z,14.20
2023-06-11T04:16:05.058Z,14.40
2023-06-11T04:16:34.102Z,14.40
2023-06-11T04:17:06.430Z,14.20
2023-06-11T04:17:34.798Z,14.40
2023-06-11T04:17:53.261Z,14.40
2023-06-11T04:18:25.204Z,14.40
2023-06-11T04:18:42.267Z,14.40
2023-06-11T04:19:14.156Z,14.40
2023-06-11T04:19:34.513Z,14.40
2023-06-11T04:20:02.468Z,14.40
2023-06-11T04:20:33.085Z,14.45
2023-06-11T04:21:05.332Z,14.45
2023-06-11T04:21:34.583Z,14.45
2023-06-11T04:21:53.144Z,14.56
2023-06-11T04:22:26.153Z,14.35
2023-06-11T04:22:57.232Z,14.47
2023-06-11T04:23:31.198Z,14.57
2023-06-11T04:24:01.367Z,14.57
2023-06-11T04:24:34.041Z,14.68
2023-06-11T04:25:05.124Z,14.51
2023-06-11T04:25:36.392Z,14.51
2023-06-11T04:25:53.065Z,14.61
2023-06-11T04:26:25.615Z,14.41
2023-06-11T04:26:58.070Z,14.52
2023-06-11T04:27:29.052Z,14.57
2023-06-11T04:28:01.281Z,14.80
2023-06-11T04:28:33.106Z,14.80
2023-06-11T04:29:05.319Z,14.80
2023-06-11T04:29:34.758Z,14.80
2023-06-11T04:29:54.273Z,14.80
2023-06-11T04:30:25.169Z,14.90
2023-06-11T04:30:42.368Z,14.90
2023-06-11T04:31:13.265Z,14.68
2023-06-11T04:31:35.633Z,14.68
2023-06-11T04:32:01.977Z,14.68
2023-06-11T04:32:35.092Z,14.83
2023-06-11T04:33:06.206Z,14.61
2023-06-11T04:33:36.260Z,14.61
2023-06-11T04:33:53.317Z,14.83
2023-06-11T04:34:25.179Z,14.83
2023-06-11T04:34:57.800Z,14.83
2023-06-11T04:35:29.162Z,14.83
2023-06-11T04:36:01.472Z,14.72
2023-06-11T04:36:33.096Z,14.72
2023-06-11T04:37:05.153Z,14.61
2023-06-11T04:37:34.730Z,14.94
2023-06-11T04:37:53.341Z,14.94
2023-06-11T04:38:26.034Z,14.49
2023-06-11T04:38:42.448Z,14.49
2023-06-11T04:39:13.189Z,15.09
2023-06-11T04:39:34.897Z,14.97
2023-06-11T04:40:02.570Z,15.19
2023-06-11T04:40:37.968Z,14.97
2023-06-11T04:41:05.296Z,14.97
2023-06-11T04:41:34.529Z,14.75
2023-06-11T04:41:54.103Z,14.75
2023-06-11T04:42:25.064Z,14.85
2023-06-11T04:42:42.410Z,14.53
2023-06-11T04:43:13.086Z,14.65
2023-06-11T04:43:34.650Z,14.99
2023-06-11T04:44:01.998Z,14.85
2023-06-11T04:44:33.126Z,15.09
2023-06-11T04:45:06.272Z,15.09
2023-06-11T04:45:34.520Z,15.09
2023-06-11T04:45:53.156Z,14.62
2023-06-11T04:46:25.317Z,14.90
2023-06-11T04:46:42.700Z,14.90
2023-06-11T04:47:14.174Z,14.90
2023-06-11T04:47:34.759Z,14.90
2023-06-11T04:48:01.186Z,15.14
2023-06-11T04:48:33.200Z,14.90
2023-06-11T04:49:05.285Z,14.90
2023-06-11T04:49:34.796Z,14.90
2023-06-11T04:49:53.068Z,14.90
2023-06-11T04:50:26.133Z,14.90
2023-06-11T04:50:42.425Z,15.14
2023-06-11T04:51:13.499Z,15.14
2023-06-11T04:51:34.606Z,14.90
2023-06-11T04:52:01.136Z,14.77
2023-06-11T04:52:34.058Z,14.52
2023-06-11T04:53:05.272Z,14.99
2023-06-11T04:53:35.663Z,14.99
2023-06-11T04:53:53.167Z,14.84
2023-06-11T04:54:25.139Z,14.84
2023-06-11T04:54:43.524Z,14.84
2023-06-11T04:55:13.415Z,14.84
2023-06-11T04:55:34.639Z,15.09
2023-06-11T04:56:04.775Z,15.09
2023-06-11T04:56:33.214Z,15.09
2023-06-11T04:57:06.053Z,15.09
2023-06-11T04:57:34.609Z,15.09
2023-06-11T04:57:53.057Z,14.84
2023-06-11T04:58:25.030Z,14.84
2023-06-11T04:58:42.615Z,14.89
2023-06-11T04:59:14.102Z,14.99
2023-06-11T04:59:34.521Z,14.99
2023-06-11T05:00:02.445Z,14.99
2023-06-11T05:00:33.268Z,14.99
2023-06-11T05:01:04.994Z,15.14
2023-06-11T05:01:34.848Z,15.33
2023-06-11T05:01:53.191Z,15.22
2023-06-11T05:02:26.406Z,15.12
2023-06-11T05:02:57.893Z,15.12
2023-06-11T05:03:30.193Z,15.12
2023-06-11T05:04:01.230Z,15.24
2023-06-11T05:04:34.522Z,15.14
2023-06-11T05:05:05.135Z,15.14
2023-06-11T05:05:35.529Z,15.14
2023-06-11T05:06:09.209Z,14.90
2023-06-11T05:06:34.983Z,14.90
2023-06-11T05:06:57.512Z,14.85
2023-06-11T05:07:29.147Z,14.85
2023-06-11T05:08:02.295Z,14.85
2023-06-11T05:08:33.161Z,14.85
2023-06-11T05:09:06.369Z,14.85
2023-06-11T05:09:34.535Z,14.85
2023-06-11T05:09:53.246Z,14.90
2023-06-11T05:10:25.197Z,14.90
2023-06-11T05:10:42.349Z,14.90
2023-06-11T05:11:14.160Z,14.67
2023-06-11T05:11:34.484Z,14.67
2023-06-11T05:12:02.345Z,14.77
2023-06-11T05:12:34.012Z,14.99
2023-06-11T05:13:05.456Z,14.99
2023-06-11T05:13:35.590Z,15.09
2023-06-11T05:13:53.100Z,14.64
2023-06-11T05:14:25.102Z,14.99
2023-06-11T05:14:44.055Z,15.10
2023-06-11T05:15:13.392Z,15.10
2023-06-11T05:15:34.634Z,15.10
2023-06-11T05:16:01.285Z,15.10
2023-06-11T05:16:33.286Z,15.10
2023-06-11T05:17:07.581Z,15.24
2023-06-11T05:17:34.862Z,15.24
2023-06-11T05:17:54.603Z,15.14
2023-06-11T05:18:25.191Z,14.99
2023-06-11T05:18:42.375Z,14.99
2023-06-11T05:19:14.455Z,14.99
2023-06-11T05:19:34.549Z,14.99
2023-06-11T05:20:02.164Z,14.99
2023-06-11T05:20:33.102Z,14.88
2023-06-11T05:21:05.220Z,15.12
2023-06-11T05:21:34.808Z,15.12
2023-06-11T05:21:53.350Z,15.01
2023-06-11T05:22:26.114Z,15.01
2023-06-11T05:22:42.706Z,15.01
2023-06-11T05:23:13.099Z,14.77
2023-06-11T05:23:35.120Z,14.77
2023-06-11T05:24:01.125Z,14.90
2023-06-11T05:24:34.018Z,14.90
2023-06-11T05:25:05.156Z,14.85
2023-06-11T05:25:35.388Z,14.85
2023-06-11T05:25:53.203Z,15.09
2023-06-11T05:26:26.628Z,15.09
2023-06-11T05:26:43.515Z,15.09
2023-06-11T05:27:13.436Z,15.09
2023-06-11T05:27:34.486Z,15.09
2023-06-11T05:28:01.088Z,15.09
2023-06-11T05:28:33.141Z,15.09
2023-06-11T05:29:06.129Z,15.09
2023-06-11T05:29:35.163Z,15.09
2023-06-11T05:29:53.035Z,14.85
2023-06-11T05:30:25.284Z,14.85
2023-06-11T05:30:57.222Z,14.85
2023-06-11T05:31:29.049Z,14.62
2023-06-11T05:32:01.276Z,14.62
2023-06-11T05:32:33.784Z,14.85
2023-06-11T05:33:05.111Z,14.67
2023-06-11T05:33:34.721Z,14.67
2023-06-11T05:33:53.116Z,14.67
2023-06-11T05:34:27.933Z,14.67
2023-06-11T05:34:57.198Z,14.52
2023-06-11T05:35:30.088Z,14.63
2023-06-11T05:36:01.298Z,14.74
2023-06-11T05:36:34.302Z,14.59
2023-06-11T05:37:05.185Z,14.74
2023-06-11T05:37:36.548Z,14.74
2023-06-11T05:37:53.286Z,14.74
2023-06-11T05:38:25.075Z,14.85
2023-06-11T05:38:43.620Z,14.85
2023-06-11T05:39:13.216Z,14.60
2023-06-11T05:39:34.855Z,14.96
2023-06-11T05:40:02.317Z,14.81
2023-06-11T05:40:34.226Z,14.54
2023-06-11T05:41:06.077Z,14.69
2023-06-11T05:41:34.606Z,14.96
2023-06-11T05:41:53.125Z,15.07
2023-06-11T05:42:25.265Z,14.91
2023-06-11T05:42:42.679Z,14.91
2023-06-11T05:43:14.104Z,15.01
2023-06-11T05:43:34.807Z,15.01
2023-06-11T05:44:02.880Z,14.76
2023-06-11T05:44:33.657Z,15.06
2023-06-11T05:45:05.248Z,14.81
2023-06-11T05:45:34.668Z,14.81
2023-06-11T05:45:53.274Z,15.06
2023-06-11T05:46:26.994Z,14.81
2023-06-11T05:46:57.315Z,14.54
2023-06-11T05:47:30.338Z,14.91
2023-06-11T05:48:01.214Z,15.38
2023-06-11T05:48:34.116Z,15.13
2023-06-11T05:49:05.187Z,14.86
2023-06-11T05:49:36.348Z,15.38
2023-06-11T05:50:08.367Z,14.96
2023-06-11T05:50:25.063Z,14.68
2023-06-11T05:50:43.449Z,14.96
2023-06-11T05:51:13.267Z,15.01
2023-06-11T05:51:34.857Z,15.11
2023-06-11T05:52:01.470Z,15.11
2023-06-11T05:52:33.126Z,15.38
2023-06-11T05:53:06.869Z,15.11
2023-06-11T05:53:34.703Z,15.11
2023-06-11T05:53:53.084Z,15.38
2023-06-11T05:54:25.098Z,15.11
2023-06-11T05:54:42.309Z,15.11
2023-06-11T05:55:14.051Z,14.83
2023-06-11T05:55:34.626Z,15.11
2023-06-11T05:56:01.078Z,15.22
2023-06-11T05:56:32.999Z,15.22
2023-06-11T05:57:05.058Z,15.22
2023-06-11T05:57:34.519Z,14.94
2023-06-11T05:57:53.012Z,15.22
2023-06-11T05:58:25.850Z,15.15
2023-06-11T05:58:42.400Z,15.15
2023-06-11T05:59:13.009Z,15.15
2023-06-11T05:59:35.265Z,15.19
2023-06-11T06:00:02.644Z,14.93
2023-06-11T06:00:36.024Z,15.43
2023-06-11T06:01:05.167Z,15.15
2023-06-11T06:01:39.296Z,15.15
2023-06-11T06:02:09.252Z,15.22
2023-06-11T06:02:34.665Z,14.94
2023-06-11T06:02:57.053Z,14.94
2023-06-11T06:03:29.199Z,15.33
2023-06-11T06:04:03.046Z,15.04
2023-06-11T06:04:33.101Z,15.59